Página principal
METAR-TAF:

METAR-TAF

Aeroportos :

Aeroporto Internacional de Wellington

Wellington, Nova Zelândia

latitude: 41-20S, longitude: 174-48E, altura: 12 m

Observação actual do tempo

O boletim foi feito há 16 minutos, às 01:00 UTC
Vento 18 kt de norte com rajadas de 28 kt
Temperatura 14°C
Humidade 72%
Pressão 1008 hPa
Visibilidade 10 km ou mais
chuva fraca

METAR: NZWN 160100Z AUTO 35018G28KT 9999 -RA FEW028/// SCT090/// 14/09 Q1008 NOSIG

Hora: 13:16 (01:16 UTC)

Previsão

O boletim foi feito há 2 horas e 15 minutos, às 23:01 UTC
Previsão válida de 16 às 00 UTC a 17 às 00 UTC
Vento 15 kt de nor-noroeste com rajadas de 25 kt
Visibilidade 10 km ou mais
Nuvens fragmentadasa uma altura de 3000 ft
aguaceiros fracos de chuva

TAF: NZWN 152301Z 1600/1700 34015G25KT 9999 -SHRA BKN030

Observações e previsões do tempo de mais de 4000 aeroportos (mensagens METAR e TAF).

As estações disponíveis são os pontos amarelos e vermelhos sobre o mapa.

Mova o rato sobre o mapa para ver o nome da estação.

Depois clique no ponto para visualizar as observações e previsões meteorológicas.

Para alterar o mapa : clique nos botões verdes com uma cruz preta para aumentar o zoom; no botão verde com uma pitada de zoom; ou nas setas verdes para mapas adjacentes.


METAR-TAF: